createdAt,value
2023-05-21T00:00:00.124Z,16.1
2023-05-21T00:05:00.110Z,16.1
2023-05-21T00:10:00.164Z,15.5
2023-05-21T00:15:00.139Z,16.5
2023-05-21T00:20:00.307Z,16.3
2023-05-21T00:25:00.139Z,16.6
2023-05-21T00:30:00.140Z,19.1
2023-05-21T00:35:00.177Z,16
2023-05-21T00:40:00.133Z,15.7
2023-05-21T00:45:00.157Z,18.6
2023-05-21T00:50:00.156Z,18
2023-05-21T00:55:00.115Z,18.3
2023-05-21T01:00:00.177Z,16.7
2023-05-21T01:05:00.119Z,15.6
2023-05-21T01:10:00.196Z,16.9
2023-05-21T01:15:00.120Z,19.4
2023-05-21T01:20:00.142Z,19.9
2023-05-21T01:25:00.130Z,18.5
2023-05-21T01:30:00.198Z,18.1
2023-05-21T01:35:00.163Z,21.3
2023-05-21T01:40:00.132Z,20.2
2023-05-21T01:45:00.126Z,17.3
2023-05-21T01:50:00.197Z,19.8
2023-05-21T01:55:00.155Z,18.8
2023-05-21T02:00:00.150Z,18.2
2023-05-21T02:05:00.111Z,17.4
2023-05-21T02:10:00.164Z,15.1
2023-05-21T02:15:00.157Z,16.8
2023-05-21T02:20:00.147Z,16.6
2023-05-21T02:25:00.140Z,17.2
2023-05-21T02:30:00.143Z,17.1
2023-05-21T02:35:00.171Z,16.8
2023-05-21T02:40:00.155Z,14.5
2023-05-21T02:45:00.164Z,15.4
2023-05-21T02:50:00.206Z,15.5
2023-05-21T02:55:00.148Z,15.3
2023-05-21T03:00:00.107Z,15.6
2023-05-21T03:05:00.153Z,16.8
2023-05-21T03:10:00.180Z,15.9
2023-05-21T03:15:00.153Z,17.7
2023-05-21T03:20:00.195Z,18.4
2023-05-21T03:25:00.173Z,19.4
2023-05-21T03:30:00.122Z,17.8
2023-05-21T03:35:00.199Z,18.3
2023-05-21T03:40:00.222Z,18.3
2023-05-21T03:45:00.143Z,18.3
2023-05-21T03:50:00.292Z,20.8
2023-05-21T03:55:00.174Z,18.8
2023-05-21T04:00:00.152Z,23
2023-05-21T04:05:00.142Z,18
2023-05-21T04:10:00.144Z,19.1
2023-05-21T04:15:00.166Z,16.6
2023-05-21T04:20:00.140Z,18.4
2023-05-21T04:25:00.162Z,17.8
2023-05-21T04:30:00.144Z,17.2
2023-05-21T04:35:00.127Z,16.2
2023-05-21T04:40:00.137Z,17.6
2023-05-21T04:45:00.170Z,19
2023-05-21T04:50:00.196Z,16.7
2023-05-21T04:55:00.144Z,15.2
2023-05-21T05:00:00.180Z,16.3
2023-05-21T05:05:00.128Z,13.5
2023-05-21T05:10:00.161Z,14.6
2023-05-21T05:15:00.162Z,14.7
2023-05-21T05:20:00.176Z,16.3
2023-05-21T05:25:00.182Z,15.7
2023-05-21T05:30:00.152Z,13.2
2023-05-21T05:35:02.255Z,17.3
2023-05-21T05:40:00.164Z,14.6
2023-05-21T05:45:00.111Z,15
2023-05-21T05:50:00.169Z,17.5
2023-05-21T05:55:00.146Z,18.4
2023-05-21T06:00:00.132Z,17.1
2023-05-21T06:05:00.126Z,17.8
2023-05-21T06:10:00.151Z,21.1
2023-05-21T06:15:00.139Z,19.9
2023-05-21T06:20:00.140Z,16.4
2023-05-21T06:25:00.227Z,14.6
2023-05-21T06:30:00.142Z,12.8
2023-05-21T06:35:00.102Z,14.4
2023-05-21T06:40:00.172Z,16.3
2023-05-21T06:45:00.132Z,10.7
2023-05-21T06:50:00.201Z,18.2
2023-05-21T06:55:00.125Z,21.5
2023-05-21T07:00:00.206Z,21.2
2023-05-21T07:05:00.174Z,20.9
2023-05-21T07:10:00.160Z,25.6
2023-05-21T07:15:00.157Z,25.6
2023-05-21T07:20:00.136Z,23.4
2023-05-21T07:25:00.172Z,22.7
2023-05-21T07:30:00.144Z,22.3
2023-05-21T07:35:00.115Z,22.2
2023-05-21T07:40:00.151Z,19.4
2023-05-21T07:45:00.187Z,18.2
2023-05-21T07:50:00.161Z,20.4
2023-05-21T07:55:00.284Z,27.8
2023-05-21T08:00:00.117Z,19.2
2023-05-21T08:05:00.170Z,20
2023-05-21T08:10:02.203Z,24
2023-05-21T08:15:00.143Z,19.2
2023-05-21T08:20:00.162Z,18.6
2023-05-21T08:25:00.203Z,18.5
2023-05-21T08:30:00.150Z,17.2
2023-05-21T08:35:00.148Z,21.1
2023-05-21T08:40:00.186Z,20.1
2023-05-21T08:45:00.138Z,24.6
2023-05-21T08:50:00.168Z,24.1
2023-05-21T08:55:00.224Z,20.5
2023-05-21T09:00:00.237Z,18.8
2023-05-21T09:05:00.148Z,22.9
2023-05-21T09:10:00.125Z,28.6
2023-05-21T09:15:00.151Z,24.6
2023-05-21T09:20:00.141Z,29.8
2023-05-21T09:25:00.120Z,20.8
2023-05-21T09:30:00.183Z,21.5
2023-05-21T09:35:00.138Z,26.7
2023-05-21T09:40:00.138Z,28
2023-05-21T09:45:00.131Z,22.6
2023-05-21T09:50:00.173Z,25.6
2023-05-21T09:55:00.137Z,27.5
2023-05-21T10:00:00.203Z,23.7
2023-05-21T10:05:00.141Z,23.2
2023-05-21T10:10:00.174Z,22.4
2023-05-21T10:15:00.096Z,20.7
2023-05-21T10:20:00.176Z,18.9
2023-05-21T10:25:00.205Z,26
2023-05-21T10:30:00.114Z,26.3
2023-05-21T10:35:01.725Z,20.5
2023-05-21T10:40:00.136Z,21
2023-05-21T10:45:00.121Z,21.4
2023-05-21T10:50:00.148Z,21.8
2023-05-21T10:55:00.152Z,24.5
2023-05-21T11:00:00.185Z,19
2023-05-21T11:05:00.151Z,16.3
2023-05-21T11:10:00.171Z,25.6
2023-05-21T11:15:00.120Z,20.5
2023-05-21T11:20:00.151Z,23.9
2023-05-21T11:25:00.158Z,19.9
2023-05-21T11:30:00.164Z,16.2
2023-05-21T11:35:00.101Z,17.5
2023-05-21T11:40:00.174Z,21.7
2023-05-21T11:45:00.151Z,19.2
2023-05-21T11:50:00.169Z,21.1
2023-05-21T11:55:00.168Z,16
2023-05-21T12:00:00.203Z,21
2023-05-21T12:05:00.376Z,18.2
2023-05-21T12:10:00.184Z,14.1
2023-05-21T12:15:00.160Z,19.2
2023-05-21T12:20:00.154Z,19.3
2023-05-21T12:25:00.135Z,21.1
2023-05-21T12:30:00.110Z,21.4
2023-05-21T12:35:00.259Z,16.8
2023-05-21T12:40:00.140Z,21
2023-05-21T12:45:00.143Z,18.9
2023-05-21T12:50:00.241Z,18.5
2023-05-21T12:55:00.136Z,25
2023-05-21T13:00:00.232Z,25
2023-05-21T13:05:00.126Z,19.6
2023-05-21T13:10:00.125Z,19.7
2023-05-21T13:15:00.162Z,27.1
2023-05-21T13:20:00.148Z,20.5
2023-05-21T13:25:00.125Z,17.9
2023-05-21T13:30:00.203Z,19.9
2023-05-21T13:35:00.140Z,19.8
2023-05-21T13:40:00.194Z,19.6
2023-05-21T13:45:00.118Z,14.6
2023-05-21T13:50:00.188Z,19.9
2023-05-21T13:55:00.171Z,15.5
2023-05-21T14:00:00.149Z,16.6
2023-05-21T14:05:00.160Z,18.8
2023-05-21T14:10:00.142Z,16.7
2023-05-21T14:15:00.159Z,17.8
2023-05-21T14:20:00.144Z,21.6
2023-05-21T14:25:00.135Z,16.5
2023-05-21T14:30:00.164Z,19.6
2023-05-21T14:35:00.262Z,9.5
2023-05-21T14:40:00.148Z,20.6
2023-05-21T14:45:11.187Z,19.5
2023-05-21T14:50:00.138Z,14.7
2023-05-21T14:55:00.159Z,13.6
2023-05-21T15:00:00.118Z,12.2
2023-05-21T15:05:00.149Z,17.3
2023-05-21T15:10:00.127Z,23.5
2023-05-21T15:15:00.149Z,16.7
2023-05-21T15:20:00.108Z,17.3
2023-05-21T15:25:00.174Z,15.3
2023-05-21T15:30:00.352Z,17.9
2023-05-21T15:35:00.389Z,18.7
2023-05-21T15:40:00.214Z,22.6
2023-05-21T15:45:00.144Z,22.7
2023-05-21T15:50:00.281Z,18.2
2023-05-21T15:55:00.137Z,17.4
2023-05-21T16:00:00.176Z,21.8
2023-05-21T16:05:00.168Z,16.2
2023-05-21T16:10:00.138Z,18.6
2023-05-21T16:15:00.158Z,21.5
2023-05-21T16:20:00.174Z,20.7
2023-05-21T16:25:00.156Z,19.1
2023-05-21T16:30:00.191Z,19.3
2023-05-21T16:35:00.190Z,21.3
2023-05-21T16:40:00.224Z,17.9
2023-05-21T16:45:00.168Z,20.6
2023-05-21T16:50:00.164Z,14.7
2023-05-21T16:55:00.174Z,17.9
2023-05-21T17:00:00.119Z,17.5
2023-05-21T17:05:00.120Z,16.7
2023-05-21T17:10:00.179Z,14.9
2023-05-21T17:15:00.144Z,17.2
2023-05-21T17:20:00.182Z,16.9
2023-05-21T17:25:00.167Z,12.5
2023-05-21T17:30:00.176Z,14.8
2023-05-21T17:35:00.147Z,10.6
2023-05-21T17:40:00.155Z,16.3
2023-05-21T17:45:00.152Z,16.3
2023-05-21T17:50:00.139Z,18.2
2023-05-21T17:55:00.126Z,14.3
2023-05-21T18:00:00.461Z,12.7
2023-05-21T18:05:00.121Z,15.2
2023-05-21T18:10:00.196Z,13.4
2023-05-21T18:15:00.126Z,11.7
2023-05-21T18:20:00.153Z,9.9
2023-05-21T18:25:00.135Z,8.5
2023-05-21T18:30:00.132Z,8.5
2023-05-21T18:35:00.125Z,7
2023-05-21T18:40:00.171Z,6.9
2023-05-21T18:45:00.158Z,8.9
2023-05-21T18:50:00.152Z,7.2
2023-05-21T18:55:00.144Z,7.8
2023-05-21T19:00:00.441Z,7
2023-05-21T19:05:00.147Z,7.3
2023-05-21T19:10:00.355Z,8.4
2023-05-21T19:15:00.118Z,6.8
2023-05-21T19:20:00.187Z,6
2023-05-21T19:25:00.142Z,6
2023-05-21T19:30:00.118Z,6
2023-05-21T19:35:00.159Z,8.8
2023-05-21T19:40:00.180Z,9.1
2023-05-21T19:45:00.155Z,9.9
2023-05-21T19:50:00.144Z,8.3
2023-05-21T19:55:00.146Z,8.1
2023-05-21T20:00:00.162Z,8.5
2023-05-21T20:05:00.159Z,9.5
2023-05-21T20:10:00.158Z,6.9
2023-05-21T20:15:00.149Z,6.9
2023-05-21T20:20:00.117Z,6.6
2023-05-21T20:25:00.169Z,8.9
2023-05-21T20:30:00.169Z,8.9
2023-05-21T20:35:03.212Z,6.5
2023-05-21T20:40:00.190Z,5.3
2023-05-21T20:45:00.117Z,7.6
2023-05-21T20:50:00.151Z,8.2
2023-05-21T20:55:00.101Z,11.8
2023-05-21T21:00:00.140Z,10.7
2023-05-21T21:05:00.112Z,12.1
2023-05-21T21:10:00.228Z,10.4
2023-05-21T21:15:00.113Z,12.8
2023-05-21T21:20:00.213Z,9.7
2023-05-21T21:25:00.145Z,9.8
2023-05-21T21:30:00.115Z,8.4
2023-05-21T21:35:00.161Z,9.5
2023-05-21T21:40:00.151Z,8.6
2023-05-21T21:45:00.188Z,7.3
2023-05-21T21:50:00.209Z,7.3
2023-05-21T21:55:00.164Z,7.6
2023-05-21T22:00:00.166Z,7.8
2023-05-21T22:05:00.147Z,7.4
2023-05-21T22:10:00.107Z,7.3
2023-05-21T22:15:00.120Z,7.6
2023-05-21T22:20:00.134Z,8.3
2023-05-21T22:25:00.135Z,7.1
2023-05-21T22:30:00.149Z,7.1
2023-05-21T22:35:00.166Z,7.4
2023-05-21T22:40:00.176Z,7.4
2023-05-21T22:45:00.143Z,6.8
2023-05-21T22:50:00.134Z,6.3
2023-05-21T22:55:00.154Z,6.9
2023-05-21T23:00:00.176Z,6.7
2023-05-21T23:05:00.252Z,7.4
2023-05-21T23:10:00.151Z,6.9
2023-05-21T23:15:00.118Z,6.8
2023-05-21T23:20:00.188Z,6.7
2023-05-21T23:25:00.133Z,6
2023-05-21T23:30:00.169Z,7.5
2023-05-21T23:35:00.132Z,7.5
2023-05-21T23:40:00.149Z,6.1
2023-05-21T23:45:00.133Z,7
2023-05-21T23:50:00.198Z,8.2
2023-05-21T23:55:00.144Z,8.4
